Husuiyu0018 — 0018 — position and weather

sailwx.info

Track history (hours):
 
Tides and Currents Weather Stations Pressure Air Temp Water Temp Dewpoint Dewpoint Depression Visibility Wind Speed Wind Dir Waves Ship Positions

Husuiyu0018

Last reported at 2017-Nov-11 08:35 UTC. Time now 2017-Nov-25 00:24 UTC.
Position N 31°14' E 121°29'.
Warning: this ship's position is 13 days out of date.

Length 30 m.

Type: Fishing. MMSI: 412212538.

Date/timePositionNaut miles runAvg speedWind from/ knotsBaromVisibWave heightAir tempDewpointWater temp
2017-Nov-11 08:35N 31°14' E 121°29'0 4.5
2017-Nov-11 08:30N 31°15' E 121°29'8 3.1
2017-Nov-11 05:52N 31°23' E 121°30'2 3.6
2017-Nov-11 05:25N 31°24' E 121°31'  
2017-Nov-05 02:16N 31°21' E 121°30'2 5.7
2017-Nov-05 01:56N 31°23' E 121°30'2 4.2
2017-Nov-05 01:30N 31°25' E 121°30'4 7.3
2017-Nov-05 01:00N 31°28' E 121°27'4 7.2
2017-Nov-05 00:30N 31°30' E 121°24'  
Track history (hours):
 
Tides and Currents Weather Stations Pressure Air Temp Water Temp Dewpoint Dewpoint Depression Visibility Wind Speed Wind Dir Waves Ship Positions

Husuiyu0018

Last reported at 2017-Nov-11 08:35 UTC. Time now 2017-Nov-25 00:24 UTC.
Position N 31°14' E 121°29'.
Warning: this ship's position is 13 days out of date.

Length 30 m.

Type: Fishing. MMSI: 412212538.

Date/timePositionNaut miles runAvg speedWind from/ knotsBaromVisibWave heightAir tempDewpointWater temp
2017-Nov-11 08:35N 31°14' E 121°29'0 4.5
2017-Nov-11 08:30N 31°15' E 121°29'8 3.1
2017-Nov-11 05:52N 31°23' E 121°30'2 3.6
2017-Nov-11 05:25N 31°24' E 121°31'  
2017-Nov-05 02:16N 31°21' E 121°30'2 5.7
2017-Nov-05 01:56N 31°23' E 121°30'2 4.2
2017-Nov-05 01:30N 31°25' E 121°30'4 7.3
2017-Nov-05 01:00N 31°28' E 121°27'4 7.2
2017-Nov-05 00:30N 31°30' E 121°24'  

Dump ship's entire track history